Time;durP1;ratioP1;P1;durP2;ratioP2;P2;SDS_P1;SDS_P2;PMS_P1;PMS_P2;Temp;Humidity;BMP_temperature;BMP_pressure;BME280_temperature;BME280_humidity;BME280_pressure;Samples;Min_cycle;Max_cycle;Signal;HPM_P1;HPM_P2
2022/08/21 00:01:09;;;;;;;0.10;0.10;;;15.70;99.90;;;;;;4890833;29;20189;-79
2022/08/21 00:03:35;;;;;;;0.10;0.10;;;15.80;99.90;;;;;;4908375;29;20668;-80
2022/08/21 00:06:01;;;;;;;0.00;0.00;;;15.70;99.90;;;;;;4892904;29;20477;-80
2022/08/21 00:08:26;;;;;;;0.03;0.03;;;15.80;99.90;;;;;;4895097;29;20196;-80
2022/08/21 00:10:52;;;;;;;0.00;0.00;;;15.70;99.90;;;;;;4882077;29;20729;-80
2022/08/21 00:13:19;;;;;;;0.00;0.00;;;15.70;99.90;;;;;;4892444;29;20197;-79
2022/08/21 00:15:46;;;;;;;0.00;0.00;;;15.50;99.90;;;;;;4877718;29;20987;-80
2022/08/21 00:18:12;;;;;;;0.07;0.07;;;15.40;99.90;;;;;;4880799;29;20536;-80
2022/08/21 00:20:38;;;;;;;0.07;0.07;;;15.40;99.90;;;;;;4893787;29;20532;-79
2022/08/21 00:23:04;;;;;;;0.07;0.07;;;15.50;99.90;;;;;;4892699;29;20642;-80
2022/08/21 00:25:30;;;;;;;0.10;0.10;;;15.70;99.90;;;;;;4891484;29;20488;-79
2022/08/21 00:27:55;;;;;;;0.10;0.10;;;15.60;99.90;;;;;;4891912;29;20185;-79
2022/08/21 00:30:24;;;;;;;0.10;0.10;;;15.70;99.90;;;;;;4896811;29;20501;-80
2022/08/21 00:32:52;;;;;;;0.10;0.10;;;15.70;99.90;;;;;;4884280;29;20668;-79
2022/08/21 00:35:20;;;;;;;0.10;0.10;;;15.60;99.90;;;;;;4893941;29;20454;-79
2022/08/21 00:37:46;;;;;;;0.10;0.10;;;15.50;99.90;;;;;;4882600;29;20448;-80
2022/08/21 00:40:17;;;;;;;0.10;0.10;;;15.30;99.90;;;;;;4884601;29;20453;-80
2022/08/21 00:42:43;;;;;;;0.10;0.10;;;15.20;99.90;;;;;;4880112;29;20260;-79
2022/08/21 00:45:10;;;;;;;0.10;0.10;;;15.20;99.90;;;;;;4883738;29;20604;-80
2022/08/21 00:47:35;;;;;;;0.10;0.10;;;15.10;99.90;;;;;;4889505;29;20438;-79
2022/08/21 00:50:03;;;;;;;0.10;0.10;;;15.20;99.90;;;;;;4889594;29;20457;-79
2022/08/21 00:52:31;;;;;;;0.10;0.10;;;15.10;99.90;;;;;;4904837;29;20654;-80
2022/08/21 00:54:58;;;;;;;0.10;0.10;;;15.20;99.90;;;;;;4894282;29;20528;-80
2022/08/21 00:57:33;;;;;;;0.10;0.10;;;15.10;99.90;;;;;;4892155;29;20452;-80
2022/08/21 01:00:01;;;;;;;0.10;0.10;;;15.20;99.90;;;;;;4890581;29;20444;-80
2022/08/21 01:02:26;;;;;;;0.10;0.10;;;14.80;99.90;;;;;;4890710;29;20461;-80
2022/08/21 01:04:52;;;;;;;0.10;0.10;;;14.90;99.90;;;;;;4892406;29;20489;-80
2022/08/21 01:07:19;;;;;;;0.10;0.10;;;14.90;99.90;;;;;;4883645;29;20462;-80
2022/08/21 01:09:46;;;;;;;0.10;0.10;;;14.90;99.90;;;;;;4890849;29;21732;-79
2022/08/21 01:12:13;;;;;;;0.10;0.10;;;14.90;99.90;;;;;;4905064;29;20950;-80
2022/08/21 01:14:42;;;;;;;0.10;0.10;;;14.80;99.90;;;;;;4891094;29;20822;-80
2022/08/21 01:17:10;;;;;;;0.10;0.10;;;14.80;99.90;;;;;;4888744;29;20891;-80
2022/08/21 01:19:35;;;;;;;0.10;0.10;;;14.90;99.90;;;;;;4887676;29;20513;-80
2022/08/21 01:22:01;;;;;;;0.10;0.10;;;15.00;99.90;;;;;;4884588;29;20965;-80
2022/08/21 01:24:27;;;;;;;0.10;0.10;;;14.90;99.90;;;;;;4890811;29;20689;-80
2022/08/21 01:26:53;;;;;;;0.10;0.10;;;15.00;99.90;;;;;;4889084;29;20837;-80
2022/08/21 01:29:30;;;;;;;0.10;0.10;;;15.00;99.90;;;;;;4886766;29;20264;-79
2022/08/21 01:31:58;;;;;;;0.10;0.10;;;15.10;99.90;;;;;;4885094;29;20468;-80
2022/08/21 01:34:23;;;;;;;0.10;0.10;;;14.90;99.90;;;;;;4889690;29;20441;-80
2022/08/21 01:36:49;;;;;;;0.10;0.10;;;14.80;99.90;;;;;;4888782;29;20512;-79
2022/08/21 01:39:15;;;;;;;0.10;0.10;;;14.70;99.90;;;;;;4887244;29;20288;-79
2022/08/21 01:41:40;;;;;;;0.10;0.10;;;14.70;99.90;;;;;;4904448;29;20196;-80
2022/08/21 01:44:06;;;;;;;0.10;0.10;;;14.60;99.90;;;;;;4890108;29;20277;-80
2022/08/21 01:46:32;;;;;;;0.10;0.10;;;14.50;99.90;;;;;;4890451;29;20189;-80
2022/08/21 01:48:57;;;;;;;0.10;0.10;;;14.50;99.90;;;;;;4889571;29;20205;-80
2022/08/21 01:51:23;;;;;;;0.10;0.10;;;14.50;99.90;;;;;;4902232;29;20181;-80
2022/08/21 01:53:49;;;;;;;0.10;0.10;;;14.50;99.90;;;;;;4886344;29;20267;-80
2022/08/21 01:56:16;;;;;;;0.10;0.10;;;14.50;99.90;;;;;;4890359;29;20231;-80
2022/08/21 01:58:44;;;;;;;0.10;0.10;;;14.40;99.90;;;;;;4888724;29;20192;-80
2022/08/21 02:01:10;;;;;;;0.10;0.10;;;14.40;99.90;;;;;;4886630;29;20517;-80
2022/08/21 02:03:36;;;;;;;0.10;0.10;;;14.60;99.90;;;;;;4891290;29;20904;-80
2022/08/21 02:06:06;;;;;;;0.10;0.10;;;14.40;99.90;;;;;;4887247;29;20469;-80
2022/08/21 02:08:32;;;;;;;0.10;0.10;;;14.50;99.90;;;;;;4892459;29;20275;-80
2022/08/21 02:10:58;;;;;;;0.10;0.10;;;14.50;99.90;;;;;;4881969;29;20544;-80
2022/08/21 02:13:24;;;;;;;0.10;0.10;;;14.30;99.90;;;;;;4894166;29;20204;-80
2022/08/21 02:15:49;;;;;;;0.10;0.10;;;14.30;99.90;;;;;;4886215;29;20580;-80
2022/08/21 02:18:15;;;;;;;0.10;0.10;;;14.20;99.90;;;;;;4892414;29;20435;-80
2022/08/21 02:20:44;;;;;;;0.10;0.10;;;14.20;99.90;;;;;;4885033;29;21041;-80
2022/08/21 02:23:11;;;;;;;0.10;0.10;;;14.20;99.90;;;;;;4885129;29;20208;-80
2022/08/21 02:25:37;;;;;;;0.10;0.10;;;14.00;99.90;;;;;;4888795;29;20503;-81
2022/08/21 02:28:12;;;;;;;0.10;0.10;;;13.80;99.90;;;;;;4891800;29;20489;-80
2022/08/21 02:30:41;;;;;;;0.10;0.10;;;13.70;99.90;;;;;;4878847;29;20449;-80
2022/08/21 02:33:09;;;;;;;0.10;0.10;;;13.70;99.90;;;;;;4886624;29;20461;-80
2022/08/21 02:35:35;;;;;;;0.10;0.10;;;13.60;99.90;;;;;;4889498;29;20942;-80
2022/08/21 02:38:06;;;;;;;0.10;0.10;;;13.60;99.90;;;;;;4888207;29;20822;-80
2022/08/21 02:40:35;;;;;;;0.10;0.10;;;13.60;99.90;;;;;;4887789;29;20461;-79
2022/08/21 02:43:03;;;;;;;0.10;0.10;;;13.70;99.90;;;;;;4888513;29;20452;-79
2022/08/21 02:45:29;;;;;;;0.10;0.10;;;13.70;99.90;;;;;;4881450;29;20507;-80
2022/08/21 02:47:58;;;;;;;0.10;0.10;;;13.70;99.90;;;;;;4902346;29;20564;-80
2022/08/21 02:50:30;;;;;;;0.10;0.10;;;13.80;99.90;;;;;;4889627;29;21199;-80
2022/08/21 02:52:56;;;;;;;0.10;0.10;;;13.80;99.90;;;;;;4890247;29;20817;-80
2022/08/21 02:55:26;;;;;;;0.10;0.10;;;13.70;99.90;;;;;;4888984;29;20965;-80
2022/08/21 02:57:53;;;;;;;0.10;0.10;;;13.90;99.90;;;;;;4887776;29;20461;-80
2022/08/21 03:00:20;;;;;;;0.10;0.10;;;13.80;99.90;;;;;;4885919;29;20480;-80
2022/08/21 03:02:47;;;;;;;0.10;0.10;;;13.90;99.90;;;;;;4890646;29;20453;-80
2022/08/21 03:05:14;;;;;;;0.10;0.10;;;14.00;99.90;;;;;;4882332;29;21334;-80
2022/08/21 03:07:41;;;;;;;0.10;0.10;;;13.90;99.90;;;;;;4886642;29;20449;-80
2022/08/21 03:10:07;;;;;;;0.10;0.10;;;14.00;99.90;;;;;;4889182;29;20464;-80
2022/08/21 03:12:35;;;;;;;0.10;0.10;;;13.90;99.90;;;;;;4899959;29;21065;-81
2022/08/21 03:15:01;;;;;;;0.10;0.10;;;13.90;99.90;;;;;;4882848;29;20492;-81
2022/08/21 03:17:27;;;;;;;0.10;0.10;;;13.90;99.90;;;;;;4888757;29;20934;-81
2022/08/21 03:19:52;;;;;;;0.10;0.10;;;13.90;99.90;;;;;;4887898;29;20552;-81
2022/08/21 03:22:18;;;;;;;0.10;0.10;;;13.90;99.90;;;;;;4886178;29;20197;-81
2022/08/21 03:24:45;;;;;;;0.20;0.20;;;13.80;99.90;;;;;;4887756;29;20798;-80
2022/08/21 03:27:12;;;;;;;0.10;0.10;;;14.00;99.90;;;;;;4887991;29;20237;-81
2022/08/21 03:29:38;;;;;;;0.10;0.10;;;13.90;99.90;;;;;;4891045;29;20449;-80
2022/08/21 03:32:03;;;;;;;0.10;0.10;;;14.00;99.90;;;;;;4884768;29;20830;-80
2022/08/21 03:34:29;;;;;;;0.10;0.10;;;14.00;99.90;;;;;;4889344;29;20201;-80
2022/08/21 03:36:54;;;;;;;0.10;0.10;;;14.10;99.90;;;;;;4886023;29;20276;-80
2022/08/21 03:39:20;;;;;;;0.10;0.10;;;14.00;99.90;;;;;;4881736;29;20228;-80
2022/08/21 03:41:47;;;;;;;0.20;0.20;;;14.00;99.90;;;;;;4882435;29;20193;-80
2022/08/21 03:44:12;;;;;;;0.10;0.10;;;14.00;99.90;;;;;;4888446;29;20221;-80
2022/08/21 03:46:39;;;;;;;0.10;0.10;;;14.00;99.90;;;;;;4890708;29;20484;-80
2022/08/21 03:49:06;;;;;;;0.10;0.10;;;14.00;99.90;;;;;;4908909;29;20619;-80
2022/08/21 03:51:33;;;;;;;0.10;0.10;;;14.00;99.90;;;;;;4891172;29;20545;-81
2022/08/21 03:53:59;;;;;;;0.10;0.10;;;14.00;99.90;;;;;;4891187;29;20954;-80
2022/08/21 03:56:24;;;;;;;0.10;0.10;;;14.00;99.90;;;;;;4878410;29;20460;-80
2022/08/21 03:58:50;;;;;;;0.10;0.10;;;14.00;99.90;;;;;;4889828;29;20843;-81
2022/08/21 04:01:15;;;;;;;0.10;0.10;;;14.00;99.90;;;;;;4890500;29;20256;-81
2022/08/21 04:03:41;;;;;;;0.10;0.10;;;14.00;99.90;;;;;;4890880;29;20201;-80
2022/08/21 04:06:07;;;;;;;0.10;0.10;;;14.10;99.90;;;;;;4890145;29;20653;-80
2022/08/21 04:08:33;;;;;;;0.10;0.10;;;14.10;99.90;;;;;;4899760;29;20200;-80
2022/08/21 04:10:59;;;;;;;0.10;0.10;;;14.10;99.90;;;;;;4887720;29;20941;-80
2022/08/21 04:13:26;;;;;;;0.10;0.10;;;14.00;99.90;;;;;;4888011;29;20521;-80
2022/08/21 04:15:52;;;;;;;0.10;0.10;;;14.00;99.90;;;;;;4891546;29;21559;-80
2022/08/21 04:18:17;;;;;;;0.10;0.10;;;14.00;99.90;;;;;;4894457;29;20528;-80
2022/08/21 04:20:46;;;;;;;0.10;0.10;;;14.00;99.90;;;;;;4891528;29;20673;-80
2022/08/21 04:23:11;;;;;;;0.10;0.10;;;14.00;99.90;;;;;;4892832;29;20696;-80
2022/08/21 04:25:38;;;;;;;0.10;0.10;;;14.00;99.90;;;;;;4885339;29;20485;-81
2022/08/21 04:28:04;;;;;;;0.10;0.10;;;13.90;99.90;;;;;;4892350;29;20220;-81
2022/08/21 04:30:29;;;;;;;0.10;0.10;;;13.80;99.90;;;;;;4888937;29;20957;-80
2022/08/21 04:32:57;;;;;;;0.10;0.10;;;13.80;99.90;;;;;;4890428;29;20212;-80
2022/08/21 04:35:24;;;;;;;0.10;0.10;;;13.80;99.90;;;;;;4888572;29;20189;-80
2022/08/21 04:37:49;;;;;;;0.10;0.10;;;13.90;99.90;;;;;;4887267;29;20453;-80
2022/08/21 04:40:17;;;;;;;0.10;0.10;;;13.90;99.90;;;;;;4888988;29;20984;-80
2022/08/21 04:42:46;;;;;;;0.10;0.10;;;13.80;99.90;;;;;;4889244;29;20216;-80
2022/08/21 04:45:19;;;;;;;0.10;0.10;;;13.80;99.90;;;;;;4878772;29;20492;-80
2022/08/21 04:47:45;;;;;;;0.10;0.10;;;13.80;99.90;;;;;;4885817;29;20452;-80
2022/08/21 04:50:10;;;;;;;0.10;0.10;;;13.90;99.90;;;;;;4888178;29;20456;-80
2022/08/21 04:52:37;;;;;;;0.10;0.10;;;13.90;99.90;;;;;;4890961;29;20217;-80
2022/08/21 04:55:03;;;;;;;0.10;0.10;;;13.80;99.90;;;;;;4890208;29;20708;-80
2022/08/21 04:57:28;;;;;;;0.10;0.10;;;13.80;99.90;;;;;;4893122;29;20449;-80
2022/08/21 04:59:54;;;;;;;0.10;0.10;;;13.90;99.90;;;;;;4891009;29;20201;-81
2022/08/21 05:02:21;;;;;;;0.10;0.10;;;13.90;99.90;;;;;;4889693;29;20215;-80
2022/08/21 05:04:50;;;;;;;0.10;0.10;;;13.90;99.90;;;;;;4887736;29;20228;-81
2022/08/21 05:07:22;;;;;;;0.10;0.10;;;13.90;99.90;;;;;;4891644;29;20783;-81
2022/08/21 05:09:48;;;;;;;0.10;0.10;;;13.90;99.90;;;;;;4883223;29;20534;-80
2022/08/21 05:12:14;;;;;;;0.10;0.10;;;14.00;99.90;;;;;;4894409;29;20474;-80
2022/08/21 05:14:39;;;;;;;0.10;0.10;;;14.10;99.90;;;;;;4889587;29;20481;-80
2022/08/21 05:17:05;;;;;;;0.10;0.10;;;14.00;99.90;;;;;;4888793;29;20669;-79
2022/08/21 05:19:31;;;;;;;0.10;0.10;;;14.00;99.90;;;;;;4888106;29;20692;-80
2022/08/21 05:21:57;;;;;;;0.10;0.10;;;14.10;99.90;;;;;;4889200;29;20689;-81
2022/08/21 05:24:23;;;;;;;0.10;0.10;;;14.10;99.90;;;;;;4887648;29;22453;-81
2022/08/21 05:26:49;;;;;;;0.10;0.10;;;14.20;99.90;;;;;;4877712;29;20481;-81
2022/08/21 05:29:15;;;;;;;0.17;0.17;;;14.30;99.90;;;;;;4883970;29;20945;-80
2022/08/21 05:31:41;;;;;;;0.10;0.10;;;14.30;99.90;;;;;;4884802;29;20320;-81
2022/08/21 05:34:07;;;;;;;0.10;0.10;;;14.40;99.90;;;;;;4892438;29;20441;-81
2022/08/21 05:36:33;;;;;;;0.10;0.10;;;14.50;99.90;;;;;;4890461;29;20477;-80
2022/08/21 05:38:59;;;;;;;0.10;0.10;;;14.50;99.90;;;;;;4889421;29;20468;-80
2022/08/21 05:41:24;;;;;;;0.10;0.10;;;14.60;99.90;;;;;;4889767;29;20200;-78
2022/08/21 05:43:50;;;;;;;0.10;0.10;;;14.70;99.90;;;;;;4885698;29;20197;-81
2022/08/21 05:46:16;;;;;;;0.10;0.10;;;14.60;99.90;;;;;;4891535;29;20209;-80
2022/08/21 05:48:41;;;;;;;0.10;0.10;;;14.70;99.90;;;;;;4885373;29;20392;-80
2022/08/21 05:51:16;;;;;;;0.10;0.10;;;14.80;99.90;;;;;;4887485;29;20873;-81
2022/08/21 05:53:42;;;;;;;0.10;0.10;;;14.90;99.90;;;;;;4891138;29;20248;-80
2022/08/21 05:56:08;;;;;;;0.10;0.10;;;14.90;99.90;;;;;;4884444;29;20457;-80
2022/08/21 05:58:34;;;;;;;0.10;0.10;;;15.00;99.90;;;;;;4889623;29;20468;-80
2022/08/21 06:01:01;;;;;;;0.10;0.10;;;15.10;99.90;;;;;;4889127;29;20457;-81
2022/08/21 06:03:29;;;;;;;0.10;0.10;;;15.20;99.90;;;;;;4893689;29;20185;-80
2022/08/21 06:05:55;;;;;;;0.10;0.10;;;15.30;99.90;;;;;;4888526;29;20576;-80
2022/08/21 06:08:21;;;;;;;0.10;0.10;;;15.30;99.90;;;;;;4886588;29;20783;-80
2022/08/21 06:10:48;;;;;;;0.10;0.10;;;15.40;99.90;;;;;;4885839;29;20497;-80
2022/08/21 06:13:15;;;;;;;0.10;0.10;;;15.50;99.90;;;;;;4886760;29;20468;-81
2022/08/21 06:15:41;;;;;;;0.10;0.10;;;15.60;99.90;;;;;;4890521;29;20865;-80
2022/08/21 06:18:07;;;;;;;0.10;0.10;;;15.70;99.90;;;;;;4888029;29;20465;-83
2022/08/21 06:20:33;;;;;;;0.10;0.10;;;15.80;99.90;;;;;;4887369;29;20197;-83
2022/08/21 06:22:59;;;;;;;0.10;0.10;;;15.90;99.90;;;;;;4887530;29;20449;-82
2022/08/21 06:25:25;;;;;;;0.10;0.10;;;16.00;99.90;;;;;;4864436;29;20520;-85
2022/08/21 06:27:51;;;;;;;0.10;0.10;;;16.10;99.90;;;;;;4888463;29;20836;-82
2022/08/21 06:30:17;;;;;;;0.10;0.10;;;16.20;99.90;;;;;;4882524;29;20200;-82
2022/08/21 06:32:43;;;;;;;0.10;0.10;;;16.30;99.90;;;;;;4900351;29;20456;-83
2022/08/21 06:35:09;;;;;;;0.10;0.10;;;16.30;99.90;;;;;;4888595;29;20461;-83
2022/08/21 06:37:35;;;;;;;0.10;0.10;;;16.40;99.90;;;;;;4888811;29;20449;-81
2022/08/21 06:40:01;;;;;;;0.10;0.10;;;16.50;99.90;;;;;;4886966;29;20239;-81
2022/08/21 06:42:27;;;;;;;0.10;0.10;;;16.50;99.90;;;;;;4888490;29;20583;-81
2022/08/21 06:44:53;;;;;;;0.10;0.10;;;16.60;99.90;;;;;;4884668;29;21253;-80
2022/08/21 06:47:19;;;;;;;0.10;0.10;;;16.70;99.90;;;;;;4883356;29;21013;-82
2022/08/21 06:49:44;;;;;;;0.10;0.10;;;16.80;99.90;;;;;;4888596;29;20457;-82
2022/08/21 06:52:12;;;;;;;0.10;0.10;;;16.90;99.90;;;;;;4905755;29;20185;-80
2022/08/21 06:54:38;;;;;;;0.10;0.10;;;17.00;99.90;;;;;;4891709;29;20200;-81
2022/08/21 06:57:04;;;;;;;0.10;0.10;;;17.00;99.90;;;;;;4905093;29;20544;-81
2022/08/21 06:59:30;;;;;;;0.10;0.10;;;17.10;99.90;;;;;;4892612;29;20499;-83
2022/08/21 07:01:56;;;;;;;0.10;0.10;;;17.20;99.90;;;;;;4888746;29;20362;-81
2022/08/21 07:04:21;;;;;;;0.10;0.10;;;17.30;99.90;;;;;;4891851;29;20993;-82
2022/08/21 07:06:48;;;;;;;0.10;0.10;;;17.40;99.90;;;;;;4889346;29;20197;-80
2022/08/21 07:09:14;;;;;;;0.10;0.10;;;17.60;99.90;;;;;;4892525;29;20328;-80
2022/08/21 07:11:41;;;;;;;0.10;0.10;;;17.70;99.90;;;;;;4890737;29;20544;-81
2022/08/21 07:14:06;;;;;;;0.10;0.10;;;17.80;99.90;;;;;;4889402;29;20220;-81
2022/08/21 07:16:32;;;;;;;0.10;0.10;;;17.90;99.90;;;;;;4894564;29;20440;-81
2022/08/21 07:18:58;;;;;;;0.10;0.10;;;18.10;99.90;;;;;;4894678;29;20212;-82
2022/08/21 07:21:24;;;;;;;0.10;0.10;;;18.10;99.90;;;;;;4908454;29;20184;-83
2022/08/21 07:23:51;;;;;;;0.10;0.10;;;18.20;99.90;;;;;;4893748;29;20961;-81
2022/08/21 07:26:19;;;;;;;0.10;0.10;;;18.30;99.90;;;;;;4895352;29;20452;-83
2022/08/21 07:28:45;;;;;;;0.10;0.10;;;18.40;99.90;;;;;;4889911;29;20464;-81
2022/08/21 07:31:13;;;;;;;0.10;0.10;;;18.50;99.90;;;;;;4911850;29;21044;-81
2022/08/21 07:33:40;;;;;;;0.10;0.10;;;18.70;99.90;;;;;;4896845;29;20654;-81
2022/08/21 07:36:06;;;;;;;0.10;0.10;;;18.80;99.90;;;;;;4887457;29;20847;-81
2022/08/21 07:38:32;;;;;;;0.10;0.10;;;18.90;99.90;;;;;;4893779;29;20457;-79
2022/08/21 07:41:00;;;;;;;0.10;0.10;;;18.90;99.90;;;;;;4895462;29;20607;-81
2022/08/21 07:43:26;;;;;;;0.10;0.10;;;19.00;99.90;;;;;;4891126;29;20654;-81
2022/08/21 07:45:53;;;;;;;0.10;0.10;;;19.10;99.90;;;;;;4890330;29;20504;-79
2022/08/21 07:48:19;;;;;;;0.10;0.10;;;19.30;99.90;;;;;;4907785;29;20197;-82
2022/08/21 07:50:45;;;;;;;0.10;0.10;;;19.40;99.90;;;;;;4899316;29;20830;-80
2022/08/21 07:53:10;;;;;;;0.10;0.10;;;19.40;99.90;;;;;;4896702;29;20216;-83
2022/08/21 07:55:36;;;;;;;0.10;0.07;;;19.50;99.90;;;;;;4894004;29;20579;-81
2022/08/21 07:58:01;;;;;;;0.10;0.10;;;19.60;99.90;;;;;;4897737;29;20197;-80
2022/08/21 08:00:30;;;;;;;0.10;0.10;;;19.70;99.90;;;;;;4890889;29;20648;-81
2022/08/21 08:02:57;;;;;;;0.10;0.00;;;19.80;99.90;;;;;;4891135;29;20285;-81
2022/08/21 08:05:28;;;;;;;0.10;0.10;;;19.80;99.90;;;;;;4897746;29;20503;-80
2022/08/21 08:07:54;;;;;;;0.10;0.10;;;20.00;99.90;;;;;;4897244;29;20992;-83
2022/08/21 08:10:21;;;;;;;0.10;0.00;;;19.90;99.90;;;;;;4907818;29;20609;-81
2022/08/21 08:12:47;;;;;;;0.10;0.00;;;19.90;99.90;;;;;;4895651;29;20456;-81
2022/08/21 08:15:19;;;;;;;0.10;0.00;;;20.00;99.90;;;;;;4891801;29;20501;-82
2022/08/21 08:17:44;;;;;;;0.10;0.10;;;20.20;99.90;;;;;;4893237;29;20449;-82
2022/08/21 08:20:13;;;;;;;0.10;0.00;;;20.30;99.90;;;;;;4893275;29;20463;-82
2022/08/21 08:22:39;;;;;;;0.10;0.10;;;20.30;99.90;;;;;;4893124;29;20200;-82
2022/08/21 08:25:07;;;;;;;0.10;0.00;;;20.30;99.90;;;;;;4895783;29;20506;-82
2022/08/21 08:27:33;;;;;;;0.10;0.00;;;20.50;99.90;;;;;;4887038;29;20935;-81
2022/08/21 08:29:58;;;;;;;0.10;0.10;;;20.70;99.90;;;;;;4892392;29;20447;-83
2022/08/21 08:32:24;;;;;;;0.10;0.10;;;20.70;99.90;;;;;;4898082;29;20186;-82
2022/08/21 08:34:51;;;;;;;0.10;0.00;;;20.90;99.90;;;;;;4879890;29;20196;-81
2022/08/21 08:37:18;;;;;;;0.10;0.00;;;20.80;99.90;;;;;;4896448;29;20189;-83
2022/08/21 08:39:43;;;;;;;0.10;0.00;;;20.80;99.90;;;;;;4893943;29;20442;-82
2022/08/21 08:42:30;;;;;;;0.10;0.00;;;21.00;99.90;;;;;;4896251;29;20444;-82
2022/08/21 08:45:01;;;;;;;0.10;0.00;;;21.10;99.90;;;;;;4893938;29;20287;-81
2022/08/21 08:47:29;;;;;;;0.10;0.00;;;21.50;99.90;;;;;;4890824;29;20505;-81
2022/08/21 08:50:23;;;;;;;0.10;0.10;;;21.70;99.90;;;;;;4895478;29;21033;-81
2022/08/21 08:52:53;;;;;;;0.10;0.00;;;21.80;99.90;;;;;;4890720;29;20461;-82
2022/08/21 08:55:31;;;;;;;0.10;0.00;;;22.10;99.90;;;;;;4890421;29;20560;-81
2022/08/21 08:57:57;;;;;;;0.10;0.00;;;22.00;99.90;;;;;;4881859;29;20458;-82
2022/08/21 09:00:24;;;;;;;0.10;0.00;;;22.00;99.90;;;;;;4887747;29;20454;-81
2022/08/21 09:02:54;;;;;;;0.10;0.10;;;22.40;99.90;;;;;;4890614;29;20185;-82
2022/08/21 09:05:39;;;;;;;0.10;0.00;;;22.50;99.90;;;;;;4892106;29;20489;-82
2022/08/21 09:08:15;;;;;;;0.10;0.00;;;22.60;99.90;;;;;;4895009;29;20445;-83
2022/08/21 09:10:47;;;;;;;0.10;0.00;;;22.40;99.90;;;;;;4895031;29;20453;-81
2022/08/21 09:13:41;;;;;;;0.10;0.00;;;22.30;99.90;;;;;;4896902;29;20777;-81
2022/08/21 09:16:15;;;;;;;0.10;0.00;;;22.50;99.90;;;;;;4895027;29;20460;-82
2022/08/21 09:19:07;;;;;;;0.10;0.00;;;22.80;99.90;;;;;;4891935;29;20455;-83
2022/08/21 09:22:00;;;;;;;0.10;0.00;;;23.10;99.90;;;;;;4887181;29;20992;-83
2022/08/21 09:24:36;;;;;;;0.10;0.00;;;23.30;99.90;;;;;;4885618;29;20541;-83
2022/08/21 09:27:13;;;;;;;0.10;0.00;;;22.80;99.90;;;;;;4887516;29;20445;-83
2022/08/21 09:29:42;;;;;;;0.10;0.00;;;23.00;99.90;;;;;;4876547;29;20509;-82
2022/08/21 09:32:18;;;;;;;0.10;0.00;;;23.00;99.90;;;;;;4891681;29;20547;-82
2022/08/21 09:34:57;;;;;;;0.10;0.00;;;23.40;99.90;;;;;;4887886;29;20453;-82
2022/08/21 09:37:23;;;;;;;0.10;0.00;;;23.70;99.90;;;;;;4891512;29;20457;-83
2022/08/21 09:39:48;;;;;;;0.10;0.00;;;23.90;99.90;;;;;;4905325;29;20462;-82
2022/08/21 09:42:23;;;;;;;0.10;0.00;;;23.70;99.90;;;;;;4895068;29;20929;-82
2022/08/21 09:44:48;;;;;;;0.10;0.00;;;24.00;99.90;;;;;;4889010;29;20768;-82
2022/08/21 09:47:18;;;;;;;0.10;0.00;;;24.10;99.90;;;;;;4887343;29;20446;-82
2022/08/21 09:49:44;;;;;;;0.10;0.00;;;24.40;99.90;;;;;;4881124;29;20247;-82
2022/08/21 09:52:22;;;;;;;0.10;0.00;;;24.50;99.90;;;;;;4906222;29;20972;-81
2022/08/21 09:54:52;;;;;;;0.10;0.00;;;24.60;99.90;;;;;;4888951;29;20217;-83
2022/08/21 09:57:40;;;;;;;0.10;0.00;;;24.20;99.90;;;;;;4892323;29;20946;-84
2022/08/21 10:00:25;;;;;;;0.10;0.00;;;24.10;99.90;;;;;;4889932;29;20461;-82
2022/08/21 10:02:51;;;;;;;0.10;0.00;;;24.10;99.90;;;;;;4893450;29;20831;-82
2022/08/21 10:05:22;;;;;;;0.10;0.00;;;23.60;99.90;;;;;;4890908;29;20497;-81
2022/08/21 10:07:48;;;;;;;0.10;0.00;;;23.30;99.90;;;;;;4893663;29;20193;-82
2022/08/21 10:10:21;;;;;;;0.10;0.00;;;23.20;99.90;;;;;;4893269;29;20964;-82
2022/08/21 10:13:21;;;;;;;0.10;0.00;;;23.20;99.90;;;;;;4895807;29;20181;-82
2022/08/21 10:16:05;;;;;;;0.10;0.00;;;23.10;99.90;;;;;;4891433;29;21064;-82
2022/08/21 10:18:33;;;;;;;0.10;0.00;;;23.50;99.90;;;;;;4885438;29;20492;-82
2022/08/21 10:21:43;;;;;;;0.10;0.00;;;24.30;99.90;;;;;;4891005;29;20798;-82
2022/08/21 10:24:25;;;;;;;0.10;0.00;;;24.80;99.90;;;;;;4874546;29;20954;-81
2022/08/21 10:27:05;;;;;;;0.10;0.00;;;24.90;99.90;;;;;;4907363;29;21029;-82
2022/08/21 10:29:53;;;;;;;0.10;0.00;;;25.60;99.90;;;;;;4890206;29;20471;-80
2022/08/21 10:32:29;;;;;;;0.10;0.00;;;26.30;99.90;;;;;;4887628;29;20450;-81
2022/08/21 10:35:27;;;;;;;0.10;0.00;;;27.00;99.90;;;;;;4882967;29;20846;-81
2022/08/21 10:38:21;;;;;;;0.10;0.00;;;27.10;99.90;;;;;;4888922;29;20496;-82
2022/08/21 10:41:26;;;;;;;0.10;0.00;;;25.70;99.90;;;;;;4889275;29;20453;-82
2022/08/21 10:44:18;;;;;;;0.10;0.00;;;26.20;99.90;;;;;;4860610;29;20456;-80
2022/08/21 10:46:57;;;;;;;0.10;0.00;;;26.50;99.90;;;;;;4886903;29;20465;-82
2022/08/21 10:49:58;;;;;;;0.10;0.00;;;27.20;99.90;;;;;;4891541;29;20459;-82
2022/08/21 10:52:51;;;;;;;0.10;0.00;;;27.10;99.90;;;;;;4890940;29;22252;-82
2022/08/21 10:55:39;;;;;;;0.10;0.00;;;26.70;99.90;;;;;;4886532;29;20450;-82
2022/08/21 10:58:09;;;;;;;0.10;0.00;;;27.30;99.90;;;;;;4891515;29;20461;-81
2022/08/21 11:00:43;;;;;;;0.10;0.00;;;28.00;99.90;;;;;;4894369;29;20460;-80
2022/08/21 11:03:23;;;;;;;0.10;0.00;;;28.20;99.90;;;;;;4891074;29;20484;-80
2022/08/21 11:05:57;;;;;;;0.10;0.00;;;28.20;99.90;;;;;;4890204;29;20500;-82
2022/08/21 11:08:39;;;;;;;0.10;0.00;;;28.10;99.90;;;;;;4893207;29;20453;-81
2022/08/21 11:11:13;;;;;;;0.10;0.00;;;28.60;99.90;;;;;;4884036;29;20521;-82
2022/08/21 11:14:02;;;;;;;0.10;0.00;;;28.70;99.90;;;;;;4890637;29;20449;-81
2022/08/21 11:16:53;;;;;;;0.10;0.00;;;28.70;99.90;;;;;;4884816;29;20465;-82
2022/08/21 11:19:37;;;;;;;0.10;0.00;;;29.00;99.90;;;;;;4890900;29;20799;-82
2022/08/21 11:22:37;;;;;;;0.10;0.00;;;28.90;99.90;;;;;;4891717;29;20449;-82
2022/08/21 11:25:14;;;;;;;0.10;0.00;;;29.20;99.90;;;;;;4883087;29;20855;-79
2022/08/21 11:27:48;;;;;;;0.10;0.00;;;29.00;99.90;;;;;;4887750;29;20864;-81
2022/08/21 11:30:14;;;;;;;0.10;0.00;;;29.80;99.90;;;;;;4892877;29;20454;-80
2022/08/21 11:32:57;;;;;;;0.10;0.00;;;30.50;99.90;;;;;;4890599;29;20812;-78
2022/08/21 11:35:39;;;;;;;0.10;0.00;;;30.40;99.20;;;;;;4890567;29;20544;-80
2022/08/21 11:38:28;;;;;;;0.10;0.00;;;30.50;98.60;;;;;;4883584;29;20977;-79
2022/08/21 11:41:24;;;;;;;0.10;0.00;;;30.70;96.80;;;;;;4894708;29;20808;-80
2022/08/21 11:43:59;;;;;;;0.10;0.00;;;30.50;97.20;;;;;;4890077;29;20442;-80
2022/08/21 11:46:35;;;;;;;0.10;0.00;;;30.60;96.20;;;;;;4892088;29;20484;-79
2022/08/21 11:49:20;;;;;;;0.10;0.00;;;30.00;97.70;;;;;;4890957;29;20448;-78
2022/08/21 11:51:53;;;;;;;0.10;0.00;;;29.40;97.00;;;;;;4889143;29;20462;-79
2022/08/21 11:54:54;;;;;;;0.10;0.00;;;29.90;94.30;;;;;;4892561;29;20480;-81
2022/08/21 11:57:36;;;;;;;0.10;0.00;;;29.90;94.10;;;;;;4891819;29;20539;-80
2022/08/21 12:00:10;;;;;;;0.10;0.00;;;30.60;93.40;;;;;;4883456;29;20444;-79
2022/08/21 12:02:45;;;;;;;0.10;0.00;;;31.20;91.80;;;;;;4886090;29;20803;-80
2022/08/21 12:05:24;;;;;;;0.10;0.00;;;31.20;86.10;;;;;;4902232;29;20491;-78
2022/08/21 12:08:01;;;;;;;0.10;0.00;;;30.50;90.60;;;;;;4893561;29;20984;-78
2022/08/21 12:10:33;;;;;;;0.10;0.00;;;30.30;90.70;;;;;;4890298;29;20997;-78
2022/08/21 12:13:24;;;;;;;0.10;0.00;;;30.60;93.30;;;;;;4890388;29;20450;-78
2022/08/21 12:15:50;;;;;;;0.10;0.00;;;30.90;94.30;;;;;;4887515;29;20481;-77
2022/08/21 12:18:30;;;;;;;0.10;0.00;;;31.60;92.40;;;;;;4887082;29;20838;-79
2022/08/21 12:21:06;;;;;;;0.10;0.00;;;31.60;92.60;;;;;;4895178;29;20189;-80
2022/08/21 12:24:01;;;;;;;0.10;0.00;;;31.40;91.90;;;;;;4894829;29;20539;-80
2022/08/21 12:26:52;;;;;;;0.10;0.00;;;31.60;90.50;;;;;;4892624;29;20493;-80
2022/08/21 12:29:37;;;;;;;0.10;0.00;;;31.30;91.80;;;;;;4894772;29;20496;-78
2022/08/21 12:32:03;;;;;;;0.10;0.00;;;31.40;88.20;;;;;;4882930;29;20453;-79
2022/08/21 12:34:36;;;;;;;0.10;0.00;;;31.20;88.70;;;;;;4895148;29;20873;-80
2022/08/21 12:37:18;;;;;;;0.10;0.00;;;31.20;88.20;;;;;;4895866;29;20203;-80
2022/08/21 12:39:46;;;;;;;0.10;0.00;;;31.40;90.90;;;;;;4894608;29;20953;-81
2022/08/21 12:42:22;;;;;;;0.10;0.00;;;32.20;89.20;;;;;;4883796;29;20460;-78
2022/08/21 12:44:55;;;;;;;0.10;0.00;;;31.70;85.70;;;;;;4888026;29;20489;-78
2022/08/21 12:47:44;;;;;;;0.10;0.00;;;32.00;85.80;;;;;;4892970;29;20457;-79
2022/08/21 12:50:17;;;;;;;0.10;0.00;;;32.20;86.00;;;;;;4893169;29;21092;-79
2022/08/21 12:52:58;;;;;;;0.10;0.00;;;32.40;88.10;;;;;;4893590;29;20490;-79
2022/08/21 12:55:29;;;;;;;0.10;0.00;;;31.90;86.90;;;;;;4894811;29;20449;-79
2022/08/21 12:57:55;;;;;;;0.10;0.00;;;31.80;89.10;;;;;;4896096;29;20441;-79
2022/08/21 13:00:24;;;;;;;0.10;0.00;;;32.00;88.10;;;;;;4890633;29;20518;-77
2022/08/21 13:02:51;;;;;;;0.10;0.00;;;32.30;81.70;;;;;;4893172;29;20445;-78
2022/08/21 13:05:29;;;;;;;0.10;0.00;;;32.40;78.60;;;;;;4888051;29;20737;-78